Time;durP1;ratioP1;P1;durP2;ratioP2;P2;SDS_P1;SDS_P2;PMS_P1;PMS_P2;Temp;Humidity;BMP_temperature;BMP_pressure;BME280_temperature;BME280_humidity;BME280_pressure;Samples;Min_cycle;Max_cycle;Signal;HPM_P1;HPM_P2
2022/07/09 00:00:26;;;;;;;9.68;4.95;;;20.30;70.10;;;;;;5015204;28;20050;-65
2022/07/09 00:02:52;;;;;;;10.50;5.07;;;20.20;70.20;;;;;;5014258;28;20033;-65
2022/07/09 00:05:17;;;;;;;8.45;4.85;;;20.20;70.40;;;;;;5012010;28;20022;-65
2022/07/09 00:07:43;;;;;;;10.40;4.88;;;20.20;70.40;;;;;;5015040;28;20399;-65
2022/07/09 00:10:10;;;;;;;11.10;5.57;;;20.10;70.40;;;;;;5013210;28;20034;-65
2022/07/09 00:12:36;;;;;;;9.75;5.15;;;20.10;70.50;;;;;;5014140;28;20022;-65
2022/07/09 00:15:02;;;;;;;10.68;5.38;;;20.10;70.50;;;;;;5018444;28;20333;-65
2022/07/09 00:17:29;;;;;;;9.10;5.43;;;20.10;70.60;;;;;;5033291;28;20049;-65
2022/07/09 00:19:56;;;;;;;8.63;4.85;;;20.10;70.60;;;;;;5021071;28;20099;-65
2022/07/09 00:22:21;;;;;;;9.95;5.20;;;20.10;70.80;;;;;;5023572;28;20036;-65
2022/07/09 00:24:47;;;;;;;9.65;5.18;;;20.00;70.90;;;;;;5028647;28;20025;-65
2022/07/09 00:27:13;;;;;;;9.48;4.85;;;20.00;70.90;;;;;;5026938;28;20038;-65
2022/07/09 00:29:39;;;;;;;10.02;5.32;;;20.00;71.00;;;;;;5021888;28;20029;-65
2022/07/09 00:32:05;;;;;;;9.65;5.18;;;20.00;71.10;;;;;;5019622;28;20033;-65
2022/07/09 00:34:30;;;;;;;8.85;5.25;;;19.90;71.00;;;;;;5004556;28;20029;-66
2022/07/09 00:36:56;;;;;;;8.80;5.18;;;19.90;71.10;;;;;;5020274;28;20030;-65
2022/07/09 00:39:21;;;;;;;9.63;5.68;;;19.90;71.20;;;;;;5023461;28;20030;-65
2022/07/09 00:41:47;;;;;;;8.30;5.03;;;19.90;71.30;;;;;;5015935;28;20164;-65
2022/07/09 00:44:13;;;;;;;9.30;5.38;;;19.80;71.30;;;;;;5018347;28;20435;-65
2022/07/09 00:46:38;;;;;;;10.30;4.63;;;19.80;71.40;;;;;;5012787;28;20028;-65
2022/07/09 00:49:05;;;;;;;9.68;5.25;;;19.80;71.50;;;;;;5011924;28;20045;-65
2022/07/09 00:51:31;;;;;;;9.48;5.22;;;19.80;71.50;;;;;;5013103;28;20095;-65
2022/07/09 00:53:59;;;;;;;8.88;5.22;;;19.80;71.60;;;;;;5013275;28;20364;-66
2022/07/09 00:56:24;;;;;;;10.77;5.50;;;19.80;71.60;;;;;;5015109;28;20033;-66
2022/07/09 00:58:51;;;;;;;7.95;4.95;;;19.70;71.60;;;;;;5016710;28;20037;-66
2022/07/09 01:01:17;;;;;;;11.60;5.20;;;19.70;71.70;;;;;;5013722;28;20075;-65
2022/07/09 01:03:42;;;;;;;9.10;5.68;;;19.70;71.70;;;;;;5030423;28;20128;-65
2022/07/09 01:06:08;;;;;;;8.98;5.55;;;19.70;71.80;;;;;;5015457;28;20391;-65
2022/07/09 01:08:34;;;;;;;8.40;5.65;;;19.70;71.80;;;;;;5021782;28;20033;-66
2022/07/09 01:11:00;;;;;;;8.90;5.40;;;19.70;71.90;;;;;;5013454;28;20448;-66
2022/07/09 01:13:26;;;;;;;8.25;5.75;;;19.70;72.00;;;;;;5012228;28;20029;-65
2022/07/09 01:15:52;;;;;;;9.48;5.95;;;19.60;72.00;;;;;;5011953;28;20354;-65
2022/07/09 01:18:19;;;;;;;8.95;6.07;;;19.60;72.10;;;;;;5018065;28;20038;-65
2022/07/09 01:20:45;;;;;;;9.73;5.97;;;19.60;72.20;;;;;;5016342;28;20022;-65
2022/07/09 01:23:11;;;;;;;10.57;5.85;;;19.60;72.20;;;;;;5018380;28;20414;-66
2022/07/09 01:25:41;;;;;;;12.55;6.53;;;19.60;72.20;;;;;;5017947;28;20068;-65
2022/07/09 01:28:09;;;;;;;9.63;6.23;;;19.60;72.30;;;;;;5019867;28;20107;-65
2022/07/09 01:30:37;;;;;;;10.77;6.65;;;19.60;72.40;;;;;;5012559;28;20026;-65
2022/07/09 01:33:03;;;;;;;9.38;6.05;;;19.50;72.50;;;;;;5022853;28;20048;-66
2022/07/09 01:35:28;;;;;;;9.95;5.80;;;19.50;72.60;;;;;;5025244;28;20038;-65
2022/07/09 01:37:54;;;;;;;10.13;6.40;;;19.50;72.60;;;;;;5021428;28;20108;-65
2022/07/09 01:40:21;;;;;;;11.32;6.75;;;19.50;72.60;;;;;;5028593;28;20095;-65
2022/07/09 01:42:47;;;;;;;8.95;6.20;;;19.50;72.60;;;;;;5018615;28;20037;-65
2022/07/09 01:45:14;;;;;;;10.73;6.03;;;19.50;72.70;;;;;;5023981;28;20087;-65
2022/07/09 01:47:40;;;;;;;11.98;6.53;;;19.50;72.70;;;;;;5021186;28;20351;-65
2022/07/09 01:50:07;;;;;;;9.02;6.15;;;19.40;72.70;;;;;;5026773;28;20017;-65
2022/07/09 01:52:33;;;;;;;10.68;6.10;;;19.40;72.80;;;;;;5022897;28;20033;-65
2022/07/09 01:54:58;;;;;;;9.80;6.25;;;19.40;72.90;;;;;;5026775;28;20021;-65
2022/07/09 01:57:24;;;;;;;10.55;6.63;;;19.40;73.00;;;;;;5016065;28;20022;-65
2022/07/09 01:59:50;;;;;;;9.93;6.68;;;19.40;73.00;;;;;;5018487;28;20033;-65
2022/07/09 02:02:15;;;;;;;10.18;6.63;;;19.40;73.00;;;;;;5025564;28;20022;-65
2022/07/09 02:04:41;;;;;;;9.23;6.03;;;19.40;73.10;;;;;;5021555;28;20148;-65
2022/07/09 02:07:07;;;;;;;11.57;6.22;;;19.30;73.10;;;;;;5023305;28;20319;-65
2022/07/09 02:09:32;;;;;;;12.02;6.72;;;19.30;73.20;;;;;;5025973;28;20437;-65
2022/07/09 02:11:58;;;;;;;10.25;6.32;;;19.30;73.20;;;;;;5025661;28;20117;-65
2022/07/09 02:14:24;;;;;;;10.35;6.95;;;19.30;73.30;;;;;;5031236;28;20037;-65
2022/07/09 02:16:50;;;;;;;10.10;6.38;;;19.30;73.40;;;;;;5023754;28;20092;-65
2022/07/09 02:19:15;;;;;;;10.32;7.43;;;19.30;73.50;;;;;;5018954;28;20022;-65
2022/07/09 02:21:41;;;;;;;12.10;7.15;;;19.30;73.70;;;;;;5017434;28;20113;-65
2022/07/09 02:24:07;;;;;;;9.75;6.05;;;19.20;73.70;;;;;;5017506;28;20033;-65
2022/07/09 02:26:33;;;;;;;11.27;6.07;;;19.20;73.70;;;;;;5018093;28;20026;-65
2022/07/09 02:28:59;;;;;;;11.13;6.60;;;19.20;73.70;;;;;;5027980;28;20033;-65
2022/07/09 02:31:27;;;;;;;11.15;6.80;;;19.20;73.80;;;;;;5021487;28;20040;-65
2022/07/09 02:33:53;;;;;;;10.75;6.63;;;19.20;73.80;;;;;;5016685;28;20099;-65
2022/07/09 02:36:19;;;;;;;9.52;6.60;;;19.20;73.90;;;;;;5022383;28;20038;-65
2022/07/09 02:38:45;;;;;;;9.45;6.13;;;19.10;73.90;;;;;;5020507;28;20111;-65
2022/07/09 02:41:11;;;;;;;11.20;7.20;;;19.10;73.90;;;;;;5034622;28;20018;-65
2022/07/09 02:43:36;;;;;;;11.43;6.72;;;19.10;73.90;;;;;;5025002;28;20030;-65
2022/07/09 02:46:03;;;;;;;10.43;6.80;;;19.10;74.00;;;;;;5019377;28;20022;-65
2022/07/09 02:48:29;;;;;;;10.63;6.28;;;19.10;74.00;;;;;;5022918;28;20465;-65
2022/07/09 02:50:55;;;;;;;11.43;6.85;;;19.10;74.10;;;;;;5016741;28;20026;-65
2022/07/09 02:53:20;;;;;;;11.20;7.03;;;19.10;74.10;;;;;;5028561;28;20040;-65
2022/07/09 02:55:46;;;;;;;11.50;7.13;;;19.00;74.20;;;;;;5024025;28;20244;-65
2022/07/09 02:58:12;;;;;;;11.23;7.15;;;19.00;74.20;;;;;;5015231;28;20073;-65
2022/07/09 03:00:39;;;;;;;12.50;8.20;;;19.00;74.20;;;;;;5022906;28;20031;-65
2022/07/09 03:03:05;;;;;;;13.43;7.57;;;19.00;74.30;;;;;;5013559;28;20088;-65
2022/07/09 03:05:31;;;;;;;12.52;7.68;;;19.00;74.20;;;;;;5014354;28;20029;-65
2022/07/09 03:07:57;;;;;;;13.73;8.27;;;19.00;74.20;;;;;;5011985;28;20032;-65
2022/07/09 03:10:23;;;;;;;12.93;8.02;;;19.00;74.20;;;;;;4979676;28;1045898;-65
2022/07/09 03:12:48;;;;;;;11.95;7.45;;;19.00;74.30;;;;;;5013985;28;20022;-65
2022/07/09 03:15:16;;;;;;;12.10;7.25;;;19.00;74.30;;;;;;5015520;28;20049;-61
2022/07/09 03:17:43;;;;;;;11.15;7.20;;;18.90;74.30;;;;;;5013785;28;20034;-61
2022/07/09 03:20:09;;;;;;;9.95;6.75;;;18.90;74.40;;;;;;5014449;28;20030;-62
2022/07/09 03:22:35;;;;;;;10.45;6.35;;;18.90;74.40;;;;;;5014162;28;20053;-62
2022/07/09 03:25:01;;;;;;;12.68;6.70;;;19.00;74.40;;;;;;5014477;28;20030;-62
2022/07/09 03:27:27;;;;;;;10.20;6.97;;;19.00;74.40;;;;;;5015213;28;20371;-62
2022/07/09 03:29:52;;;;;;;8.77;6.13;;;19.00;74.40;;;;;;5015948;28;20042;-61
2022/07/09 03:32:18;;;;;;;10.40;6.68;;;19.00;74.40;;;;;;5014694;28;20057;-62
2022/07/09 03:34:44;;;;;;;10.88;6.50;;;19.00;74.30;;;;;;5014089;28;20030;-62
2022/07/09 03:37:09;;;;;;;8.80;6.00;;;19.00;74.40;;;;;;5015811;28;20029;-62
2022/07/09 03:39:35;;;;;;;10.10;5.88;;;19.00;74.40;;;;;;5012398;28;20081;-62
2022/07/09 03:42:01;;;;;;;9.75;6.43;;;19.00;74.40;;;;;;5015747;28;20064;-62
2022/07/09 03:44:26;;;;;;;9.00;5.95;;;19.00;74.40;;;;;;5014502;28;20415;-62
2022/07/09 03:46:52;;;;;;;12.57;6.47;;;19.00;74.40;;;;;;5013215;28;20033;-62
2022/07/09 03:49:18;;;;;;;9.70;6.00;;;19.10;74.40;;;;;;5019120;28;20407;-61
2022/07/09 03:51:44;;;;;;;10.40;6.20;;;19.00;74.30;;;;;;5022538;28;20053;-62
2022/07/09 03:54:10;;;;;;;8.80;5.82;;;19.00;74.20;;;;;;5014599;28;20365;-62
2022/07/09 03:56:36;;;;;;;9.02;5.97;;;19.10;74.30;;;;;;5014237;28;20477;-61
2022/07/09 03:59:02;;;;;;;10.32;6.15;;;19.10;74.30;;;;;;5022257;28;20072;-62
2022/07/09 04:01:27;;;;;;;11.07;6.05;;;19.10;74.20;;;;;;5033317;28;20043;-62
2022/07/09 04:03:53;;;;;;;8.27;5.22;;;19.10;74.10;;;;;;5015607;28;20108;-62
2022/07/09 04:06:20;;;;;;;10.68;5.57;;;19.10;74.10;;;;;;5020015;28;20025;-61
2022/07/09 04:08:45;;;;;;;8.25;5.10;;;19.10;74.00;;;;;;5027617;28;20370;-61
2022/07/09 04:11:11;;;;;;;9.02;6.10;;;19.10;73.90;;;;;;5027981;28;20057;-61
2022/07/09 04:13:37;;;;;;;8.88;5.78;;;19.20;74.00;;;;;;5026123;28;20084;-61
2022/07/09 04:16:03;;;;;;;8.20;5.28;;;19.20;73.90;;;;;;5014173;28;20088;-62
2022/07/09 04:18:29;;;;;;;11.85;5.35;;;19.20;73.80;;;;;;5013634;28;20394;-62
2022/07/09 04:20:55;;;;;;;8.43;4.75;;;19.20;73.80;;;;;;5012626;28;20033;-62
2022/07/09 04:23:20;;;;;;;11.35;5.72;;;19.20;73.80;;;;;;5014024;28;20036;-62
2022/07/09 04:25:48;;;;;;;8.52;5.32;;;19.20;73.80;;;;;;5014376;28;20052;-61
2022/07/09 04:28:13;;;;;;;9.02;6.07;;;19.20;73.80;;;;;;5013896;28;20037;-62
2022/07/09 04:30:40;;;;;;;10.13;5.60;;;19.20;73.80;;;;;;5014111;28;20419;-62
2022/07/09 04:33:06;;;;;;;9.50;5.75;;;19.20;73.90;;;;;;5013083;28;20030;-62
2022/07/09 04:35:31;;;;;;;8.52;5.60;;;19.20;74.10;;;;;;5014052;28;20526;-62
2022/07/09 04:37:57;;;;;;;10.75;6.03;;;19.20;74.10;;;;;;5013024;28;20068;-62
2022/07/09 04:40:22;;;;;;;8.43;5.22;;;19.30;74.10;;;;;;5013292;28;20118;-61
2022/07/09 04:42:48;;;;;;;9.90;5.45;;;19.30;74.10;;;;;;5006274;28;20422;-67
2022/07/09 04:45:15;;;;;;;10.13;6.45;;;19.20;74.10;;;;;;5010817;28;20026;-61
2022/07/09 04:47:41;;;;;;;10.25;6.63;;;19.20;74.20;;;;;;5014514;28;20040;-61
2022/07/09 04:50:07;;;;;;;10.77;5.68;;;19.20;74.20;;;;;;5013833;28;20104;-61
2022/07/09 04:52:32;;;;;;;11.23;6.32;;;19.30;74.30;;;;;;5013870;28;20075;-61
2022/07/09 04:54:58;;;;;;;10.70;6.70;;;19.30;74.40;;;;;;5027586;28;20026;-61
2022/07/09 04:57:23;;;;;;;11.32;7.25;;;19.30;74.40;;;;;;5013787;28;20116;-62
2022/07/09 04:59:49;;;;;;;10.07;6.90;;;19.30;74.50;;;;;;5014719;28;20029;-61
2022/07/09 05:02:15;;;;;;;11.20;7.60;;;19.30;74.60;;;;;;5033466;28;20469;-62
2022/07/09 05:04:40;;;;;;;11.82;7.50;;;19.40;74.60;;;;;;5019695;28;20029;-62
2022/07/09 05:07:06;;;;;;;10.85;8.30;;;19.40;74.60;;;;;;5013913;28;20034;-61
2022/07/09 05:09:32;;;;;;;11.50;7.53;;;19.40;75.30;;;;;;5013266;28;20117;-61
2022/07/09 05:11:57;;;;;;;10.95;7.60;;;19.50;74.60;;;;;;5013731;28;20112;-62
2022/07/09 05:14:23;;;;;;;13.35;8.13;;;19.50;74.60;;;;;;5013297;28;20049;-62
2022/07/09 05:16:48;;;;;;;12.57;7.90;;;19.60;74.60;;;;;;5013825;28;20033;-62
2022/07/09 05:19:14;;;;;;;12.05;8.38;;;19.70;74.40;;;;;;5012935;28;20378;-61
2022/07/09 05:21:41;;;;;;;13.52;7.72;;;19.90;74.00;;;;;;5013963;28;20023;-61
2022/07/09 05:24:07;;;;;;;11.85;7.97;;;20.00;74.00;;;;;;5013189;28;20164;-61
2022/07/09 05:26:33;;;;;;;12.15;8.60;;;20.00;73.90;;;;;;5014293;28;20057;-62
2022/07/09 05:28:59;;;;;;;12.65;9.25;;;20.00;74.00;;;;;;5012723;28;20030;-61
2022/07/09 05:31:25;;;;;;;12.95;8.40;;;20.00;73.90;;;;;;5014383;28;20056;-62
2022/07/09 05:33:51;;;;;;;13.23;8.25;;;20.10;74.00;;;;;;5010980;28;20087;-61
2022/07/09 05:36:17;;;;;;;13.25;9.20;;;20.10;73.90;;;;;;5013459;28;20034;-62
2022/07/09 05:38:43;;;;;;;15.65;9.48;;;20.10;74.50;;;;;;5013765;28;20042;-62
2022/07/09 05:41:10;;;;;;;13.93;9.07;;;20.10;73.80;;;;;;5026611;28;20033;-62
2022/07/09 05:43:36;;;;;;;12.25;8.60;;;20.20;73.70;;;;;;5014197;28;20041;-62
2022/07/09 05:46:02;;;;;;;12.63;9.10;;;20.20;73.60;;;;;;5013401;28;20022;-62
2022/07/09 05:48:27;;;;;;;15.63;9.02;;;20.30;73.50;;;;;;5026623;28;20470;-62
2022/07/09 05:50:54;;;;;;;12.15;8.82;;;20.40;73.40;;;;;;5013161;28;20052;-63
2022/07/09 05:53:20;;;;;;;13.10;8.68;;;20.40;73.30;;;;;;5012105;28;20096;-63
2022/07/09 05:55:46;;;;;;;13.55;9.13;;;20.40;73.30;;;;;;5012269;28;20034;-62
2022/07/09 05:58:12;;;;;;;12.82;8.85;;;20.50;73.10;;;;;;5014095;28;20030;-62
2022/07/09 06:00:38;;;;;;;12.52;8.63;;;20.50;73.00;;;;;;5018732;28;20025;-62
2022/07/09 06:03:03;;;;;;;14.13;8.00;;;20.70;73.00;;;;;;5020170;28;20029;-62
2022/07/09 06:05:29;;;;;;;12.45;8.05;;;20.70;72.70;;;;;;5022254;28;20135;-62
2022/07/09 06:07:55;;;;;;;13.43;8.73;;;20.80;72.50;;;;;;5026573;28;20108;-62
2022/07/09 06:10:21;;;;;;;12.20;8.18;;;20.80;72.40;;;;;;5015621;28;20195;-62
2022/07/09 06:12:47;;;;;;;12.52;7.45;;;20.80;72.40;;;;;;5032164;28;20395;-62
2022/07/09 06:15:12;;;;;;;14.32;7.78;;;20.80;72.30;;;;;;5017105;28;20037;-62
2022/07/09 06:17:38;;;;;;;11.82;7.45;;;20.90;72.40;;;;;;5023961;28;20033;-62
2022/07/09 06:20:05;;;;;;;11.85;7.35;;;20.80;72.40;;;;;;5021276;28;20116;-62
2022/07/09 06:22:31;;;;;;;11.48;7.85;;;20.80;72.50;;;;;;5017598;28;20030;-62
2022/07/09 06:24:57;;;;;;;11.15;7.40;;;20.80;72.60;;;;;;5014755;28;20041;-61
2022/07/09 06:27:22;;;;;;;10.90;7.05;;;20.80;72.50;;;;;;5014805;28;20026;-61
2022/07/09 06:29:48;;;;;;;10.50;6.60;;;20.90;72.40;;;;;;5015100;28;20470;-61
2022/07/09 06:32:13;;;;;;;13.20;7.93;;;21.00;72.30;;;;;;5015543;28;20117;-61
2022/07/09 06:34:39;;;;;;;11.23;6.57;;;21.00;72.30;;;;;;5016644;28;20111;-61
2022/07/09 06:37:05;;;;;;;11.93;6.63;;;21.00;72.40;;;;;;5021202;28;20030;-61
2022/07/09 06:39:45;;;;;;;11.93;6.15;;;21.00;73.00;;;;;;5016668;28;20405;-61
2022/07/09 06:42:12;;;;;;;11.93;7.55;;;21.00;72.20;;;;;;5016787;28;20097;-61
2022/07/09 06:44:43;;;;;;;10.60;6.38;;;21.00;72.20;;;;;;5015781;28;20018;-61
2022/07/09 06:47:09;;;;;;;10.52;6.25;;;21.00;72.30;;;;;;5023753;28;20026;-61
2022/07/09 06:49:35;;;;;;;10.85;6.30;;;21.00;72.30;;;;;;5015542;28;20045;-61
2022/07/09 06:52:01;;;;;;;12.15;6.47;;;21.10;72.20;;;;;;5017285;28;20033;-61
2022/07/09 06:54:27;;;;;;;10.10;6.10;;;21.20;72.10;;;;;;5016404;28;20033;-60
2022/07/09 06:56:52;;;;;;;12.63;6.22;;;21.20;71.90;;;;;;5016257;28;20358;-61
2022/07/09 06:59:18;;;;;;;10.15;5.05;;;21.20;71.80;;;;;;5016441;28;20344;-61
2022/07/09 07:01:44;;;;;;;9.68;5.30;;;21.20;71.80;;;;;;5027208;28;20022;-62
2022/07/09 07:04:14;;;;;;;10.00;5.65;;;21.20;71.80;;;;;;5019242;28;20109;-63
2022/07/09 07:06:43;;;;;;;9.57;5.03;;;21.30;71.70;;;;;;5017389;28;20030;-62
2022/07/09 07:09:09;;;;;;;10.55;4.53;;;21.30;71.50;;;;;;5017608;28;20030;-62
2022/07/09 07:11:35;;;;;;;11.18;4.45;;;21.40;71.30;;;;;;5022643;28;20600;-62
2022/07/09 07:14:01;;;;;;;10.38;5.38;;;21.60;70.70;;;;;;5013164;28;20038;-62
2022/07/09 07:16:26;;;;;;;10.55;4.78;;;21.80;70.40;;;;;;5022966;28;20025;-62
2022/07/09 07:18:53;;;;;;;7.10;3.95;;;22.10;69.80;;;;;;5005959;28;20502;-62
2022/07/09 07:21:19;;;;;;;9.95;5.18;;;22.20;69.20;;;;;;5010803;28;20435;-62
2022/07/09 07:23:44;;;;;;;8.82;4.63;;;22.50;68.70;;;;;;5010008;28;20022;-61
2022/07/09 07:26:10;;;;;;;6.78;3.63;;;22.60;68.20;;;;;;5011192;28;20026;-61
2022/07/09 07:28:36;;;;;;;9.20;4.22;;;22.60;68.10;;;;;;5007502;28;20030;-62
2022/07/09 07:31:01;;;;;;;8.85;4.03;;;22.70;67.90;;;;;;5003144;28;20168;-61
2022/07/09 07:33:28;;;;;;;7.05;3.42;;;22.90;67.60;;;;;;5008429;28;20026;-63
2022/07/09 07:35:54;;;;;;;8.18;3.72;;;23.10;66.90;;;;;;5009631;28;20029;-62
2022/07/09 07:38:19;;;;;;;10.02;4.10;;;23.10;66.70;;;;;;5023248;28;20025;-62
2022/07/09 07:40:45;;;;;;;9.23;4.60;;;23.10;66.50;;;;;;5028894;28;20084;-62
2022/07/09 07:43:11;;;;;;;9.40;4.93;;;23.10;66.50;;;;;;5038894;28;20064;-62
2022/07/09 07:45:37;;;;;;;8.02;4.25;;;23.20;66.10;;;;;;5021131;28;20030;-63
2022/07/09 07:48:03;;;;;;;7.80;3.58;;;23.40;66.00;;;;;;5034200;28;20037;-63
2022/07/09 07:50:28;;;;;;;7.45;3.85;;;23.60;65.60;;;;;;5031799;28;20026;-62
2022/07/09 07:52:54;;;;;;;8.73;3.72;;;23.60;65.20;;;;;;5026295;28;20071;-64
2022/07/09 07:55:20;;;;;;;9.77;4.22;;;23.70;65.10;;;;;;5024067;28;20026;-61
2022/07/09 07:57:45;;;;;;;8.73;4.10;;;23.80;64.70;;;;;;5019300;28;20455;-62
2022/07/09 08:00:12;;;;;;;6.93;3.63;;;23.90;64.40;;;;;;5032769;28;20120;-63
2022/07/09 08:02:41;;;;;;;8.27;4.07;;;24.10;64.10;;;;;;5005292;28;20022;-62
2022/07/09 08:05:07;;;;;;;7.50;4.20;;;24.20;63.70;;;;;;5016052;28;20041;-62
2022/07/09 08:07:33;;;;;;;9.05;4.32;;;24.20;63.40;;;;;;5015758;28;20048;-61
2022/07/09 08:09:59;;;;;;;9.45;4.45;;;24.30;63.30;;;;;;5013114;28;20476;-61
2022/07/09 08:12:24;;;;;;;7.63;4.25;;;24.30;63.20;;;;;;5029056;28;20037;-64
2022/07/09 08:14:50;;;;;;;8.13;4.13;;;24.40;63.10;;;;;;5027768;28;20045;-62
2022/07/09 08:17:16;;;;;;;8.73;4.65;;;24.40;62.80;;;;;;5014384;28;20026;-67
2022/07/09 08:19:41;;;;;;;6.88;3.50;;;24.40;62.80;;;;;;5014364;28;20087;-62
2022/07/09 08:22:07;;;;;;;8.52;3.45;;;24.30;62.90;;;;;;5013718;28;20037;-61
2022/07/09 08:24:33;;;;;;;7.90;2.95;;;24.30;62.80;;;;;;5014583;28;20080;-62
2022/07/09 08:26:58;;;;;;;7.45;2.58;;;24.30;62.70;;;;;;5013484;28;20049;-61
2022/07/09 08:29:25;;;;;;;7.60;2.80;;;24.30;62.60;;;;;;5014004;28;20349;-62
2022/07/09 08:31:51;;;;;;;5.88;2.92;;;24.30;62.40;;;;;;5014862;28;20034;-61
2022/07/09 08:34:17;;;;;;;7.07;2.97;;;24.30;62.30;;;;;;5014431;28;20359;-61
2022/07/09 08:36:42;;;;;;;6.50;2.78;;;24.20;62.20;;;;;;5014415;28;20405;-62
2022/07/09 08:39:08;;;;;;;6.97;2.78;;;24.30;62.20;;;;;;5014667;28;20083;-61
2022/07/09 08:41:34;;;;;;;6.18;3.13;;;24.20;62.00;;;;;;5014239;28;20025;-62
2022/07/09 08:44:04;;;;;;;6.22;2.88;;;24.30;62.10;;;;;;5014980;28;20026;-61
2022/07/09 08:46:31;;;;;;;6.72;3.10;;;24.30;62.70;;;;;;5014422;28;20037;-62
2022/07/09 08:49:00;;;;;;;5.78;2.60;;;24.40;62.00;;;;;;5014510;28;20026;-61
2022/07/09 08:51:26;;;;;;;6.53;2.97;;;24.60;61.80;;;;;;5013689;28;20030;-61
2022/07/09 08:53:54;;;;;;;7.18;3.30;;;24.70;61.40;;;;;;5014639;28;20025;-61
2022/07/09 08:56:20;;;;;;;7.10;3.33;;;24.70;61.30;;;;;;5014154;28;20352;-61
2022/07/09 08:58:45;;;;;;;7.63;3.42;;;24.60;61.40;;;;;;5018250;28;20040;-62
2022/07/09 09:01:16;;;;;;;6.53;2.97;;;24.50;61.40;;;;;;5024957;28;20025;-61
2022/07/09 09:03:42;;;;;;;6.23;3.70;;;24.30;61.80;;;;;;5011818;28;20022;-61
2022/07/09 09:06:10;;;;;;;8.30;3.53;;;24.20;62.30;;;;;;5025002;28;20064;-61
2022/07/09 09:08:39;;;;;;;8.10;4.20;;;24.00;62.40;;;;;;5027755;28;20037;-62
2022/07/09 09:11:12;;;;;;;7.70;4.10;;;23.90;62.70;;;;;;5014239;28;20053;-61
2022/07/09 09:13:43;;;;;;;6.75;3.45;;;23.70;62.60;;;;;;5013810;28;20493;-61
2022/07/09 09:16:10;;;;;;;9.32;4.15;;;23.50;62.90;;;;;;5014047;28;20058;-61
2022/07/09 09:18:39;;;;;;;7.30;3.80;;;23.50;63.20;;;;;;5014026;28;20045;-61
2022/07/09 09:21:06;;;;;;;8.25;5.03;;;23.40;63.50;;;;;;5013909;28;20524;-61
2022/07/09 09:23:45;;;;;;;8.48;5.68;;;23.30;63.50;;;;;;5010020;28;20036;-61
2022/07/09 09:26:13;;;;;;;8.43;5.30;;;23.40;63.60;;;;;;5017046;28;20030;-62
2022/07/09 09:28:48;;;;;;;9.77;6.63;;;23.50;63.60;;;;;;5013756;28;20042;-62
2022/07/09 09:31:28;;;;;;;10.05;6.97;;;23.60;63.40;;;;;;5012641;28;20515;-62
2022/07/09 09:33:56;;;;;;;11.52;6.57;;;23.70;63.10;;;;;;4991069;28;20077;-62
2022/07/09 09:36:32;;;;;;;10.05;6.65;;;23.80;62.90;;;;;;5010267;28;20050;-62
2022/07/09 09:39:18;;;;;;;8.95;6.80;;;23.80;62.90;;;;;;5008817;28;20415;-62
2022/07/09 09:41:52;;;;;;;10.70;8.20;;;23.70;63.00;;;;;;5020607;28;20152;-67
2022/07/09 09:44:30;;;;;;;8.80;6.95;;;23.60;63.40;;;;;;5014582;28;20037;-67
2022/07/09 09:46:57;;;;;;;10.85;7.45;;;23.50;63.60;;;;;;5038463;28;20771;-67
2022/07/09 09:49:24;;;;;;;10.52;7.60;;;23.50;63.80;;;;;;5007047;28;20050;-67
2022/07/09 09:52:05;;;;;;;10.07;7.65;;;23.40;63.80;;;;;;5019403;28;20041;-61
2022/07/09 09:54:32;;;;;;;9.48;6.43;;;23.40;63.80;;;;;;5008384;28;20375;-67
2022/07/09 09:57:16;;;;;;;10.38;7.28;;;23.30;63.90;;;;;;5016763;28;21337;-66
2022/07/09 09:59:46;;;;;;;11.23;7.07;;;23.30;63.90;;;;;;5009353;28;20038;-65
2022/07/09 10:02:13;;;;;;;8.45;6.10;;;23.40;64.00;;;;;;5016962;28;20030;-66
2022/07/09 10:04:43;;;;;;;9.30;6.55;;;23.50;63.90;;;;;;5014671;28;20031;-67
2022/07/09 10:07:11;;;;;;;10.05;5.75;;;23.70;63.60;;;;;;5014930;28;20021;-66
2022/07/09 10:09:37;;;;;;;10.07;5.80;;;23.70;63.40;;;;;;5013136;28;20126;-66
2022/07/09 10:12:03;;;;;;;8.15;5.25;;;23.70;63.30;;;;;;5015921;28;20116;-66
2022/07/09 10:14:28;;;;;;;8.57;4.68;;;23.80;63.20;;;;;;5016383;28;20394;-66
2022/07/09 10:16:54;;;;;;;7.85;4.00;;;23.80;63.20;;;;;;5015359;28;20054;-65
2022/07/09 10:19:23;;;;;;;6.80;4.45;;;23.80;63.40;;;;;;5011181;28;20037;-66
2022/07/09 10:21:55;;;;;;;6.65;4.00;;;23.80;63.40;;;;;;5015131;28;20109;-66
2022/07/09 10:24:26;;;;;;;6.90;3.53;;;24.00;63.00;;;;;;5016940;28;20030;-67
2022/07/09 10:26:51;;;;;;;5.53;2.60;;;24.00;62.60;;;;;;5015180;28;20051;-67
2022/07/09 10:29:18;;;;;;;7.05;3.03;;;23.90;62.50;;;;;;5010801;28;20061;-67
2022/07/09 10:31:45;;;;;;;5.93;2.30;;;23.80;62.10;;;;;;5013524;28;20037;-66
2022/07/09 10:34:22;;;;;;;4.90;2.03;;;23.80;61.80;;;;;;5015428;28;20363;-66
2022/07/09 10:37:01;;;;;;;4.50;2.25;;;23.90;61.50;;;;;;5015639;28;20030;-65
2022/07/09 10:39:27;;;;;;;4.78;2.20;;;24.00;61.10;;;;;;5015311;28;20022;-66
2022/07/09 10:42:16;;;;;;;6.15;2.20;;;24.20;60.50;;;;;;5014836;28;20048;-67
2022/07/09 10:44:42;;;;;;;5.03;2.03;;;24.60;59.80;;;;;;5017057;28;20053;-67
2022/07/09 10:47:08;;;;;;;4.28;2.10;;;25.00;59.10;;;;;;5015028;28;20034;-67
2022/07/09 10:49:35;;;;;;;5.15;2.30;;;25.30;58.40;;;;;;5017910;28;20029;-67
2022/07/09 10:52:01;;;;;;;5.55;1.55;;;25.50;57.90;;;;;;5016715;28;20064;-67
2022/07/09 10:54:27;;;;;;;8.13;1.63;;;25.50;57.70;;;;;;5015998;28;20033;-67
2022/07/09 10:56:54;;;;;;;3.83;1.70;;;25.70;57.10;;;;;;5014764;28;20040;-68
2022/07/09 10:59:21;;;;;;;3.75;1.60;;;25.70;56.80;;;;;;5016204;28;20034;-66
2022/07/09 11:01:46;;;;;;;3.58;1.60;;;25.70;56.70;;;;;;5018720;28;20512;-66
2022/07/09 11:04:22;;;;;;;5.32;1.65;;;25.80;56.40;;;;;;5020310;28;20121;-66
2022/07/09 11:06:48;;;;;;;4.13;1.60;;;25.90;55.90;;;;;;5014442;28;20058;-67
2022/07/09 11:09:15;;;;;;;2.90;1.30;;;26.00;55.60;;;;;;5015325;28;20426;-73
2022/07/09 11:11:45;;;;;;;5.03;1.70;;;26.10;55.20;;;;;;5012401;28;20355;-66
2022/07/09 11:14:11;;;;;;;3.60;1.90;;;26.20;54.70;;;;;;5013866;28;20045;-69
2022/07/09 11:16:37;;;;;;;3.47;1.70;;;26.30;54.50;;;;;;5013729;28;20037;-68
2022/07/09 11:19:17;;;;;;;4.07;1.70;;;26.20;54.40;;;;;;5016502;28;20125;-67
2022/07/09 11:21:43;;;;;;;5.75;1.60;;;26.00;54.60;;;;;;5018315;28;20363;-66
2022/07/09 11:24:17;;;;;;;3.90;1.50;;;26.00;54.60;;;;;;5014786;28;20391;-67
2022/07/09 11:26:42;;;;;;;4.80;1.50;;;26.20;54.30;;;;;;5014876;28;20263;-67
2022/07/09 11:29:09;;;;;;;5.47;2.50;;;26.30;53.80;;;;;;5021811;28;20030;-67
2022/07/09 11:31:36;;;;;;;5.43;2.30;;;26.40;53.50;;;;;;5015383;28;20033;-67
2022/07/09 11:34:11;;;;;;;4.07;1.75;;;26.40;53.40;;;;;;5024054;28;20352;-69
2022/07/09 11:36:38;;;;;;;2.78;1.52;;;26.50;53.20;;;;;;5012688;28;20030;-67
2022/07/09 11:39:04;;;;;;;3.50;1.45;;;26.30;53.10;;;;;;5013666;28;20026;-67
2022/07/09 11:41:43;;;;;;;4.50;1.40;;;26.20;52.90;;;;;;5014125;28;20168;-68
2022/07/09 11:44:08;;;;;;;3.60;1.20;;;26.10;52.60;;;;;;5013959;28;20027;-67
2022/07/09 11:46:35;;;;;;;0.93;0.82;;;26.20;52.80;;;;;;5014068;28;20025;-68
2022/07/09 11:49:00;;;;;;;2.13;1.10;;;26.20;52.50;;;;;;5015906;28;20112;-67
2022/07/09 11:51:33;;;;;;;2.38;1.10;;;26.40;52.20;;;;;;5013973;28;20105;-68
2022/07/09 11:54:00;;;;;;;2.53;1.33;;;26.50;51.90;;;;;;5014856;28;20034;-68
2022/07/09 11:56:26;;;;;;;2.15;1.10;;;26.50;51.40;;;;;;4998527;28;20045;-67
2022/07/09 11:58:53;;;;;;;2.28;1.08;;;26.50;51.30;;;;;;5015653;28;20037;-67
2022/07/09 12:01:19;;;;;;;3.08;1.30;;;26.60;51.10;;;;;;5014727;28;20018;-69
2022/07/09 12:03:49;;;;;;;1.63;0.98;;;26.60;50.60;;;;;;5017716;28;20033;-67
2022/07/09 12:06:16;;;;;;;2.72;1.13;;;26.60;50.00;;;;;;5015928;28;20021;-66
2022/07/09 12:08:41;;;;;;;2.65;1.10;;;26.60;50.10;;;;;;5018568;28;20025;-67
2022/07/09 12:11:07;;;;;;;5.82;1.30;;;26.60;49.80;;;;;;5013230;28;20046;-66
2022/07/09 12:13:33;;;;;;;3.40;1.08;;;26.60;49.70;;;;;;5028778;28;20041;-67
2022/07/09 12:15:58;;;;;;;3.50;1.33;;;26.50;49.70;;;;;;5012810;28;20034;-67
2022/07/09 12:18:24;;;;;;;2.75;0.98;;;26.30;49.90;;;;;;5009413;28;20069;-67
2022/07/09 12:20:50;;;;;;;2.25;0.98;;;26.10;50.00;;;;;;5012917;28;20101;-67
2022/07/09 12:23:16;;;;;;;2.50;1.00;;;26.10;50.10;;;;;;5012102;28;20452;-67
2022/07/09 12:25:42;;;;;;;2.03;1.20;;;26.10;50.10;;;;;;5013688;28;20028;-67
2022/07/09 12:28:08;;;;;;;2.95;1.20;;;26.00;49.60;;;;;;5012671;28;20446;-67
2022/07/09 12:30:33;;;;;;;3.10;1.08;;;26.00;49.60;;;;;;5010779;28;20022;-67
2022/07/09 12:32:59;;;;;;;5.15;1.48;;;26.00;49.30;;;;;;5009685;28;20068;-66
2022/07/09 12:35:26;;;;;;;2.72;1.20;;;26.00;49.20;;;;;;5010929;28;20084;-67
2022/07/09 12:37:52;;;;;;;2.40;1.13;;;26.10;49.00;;;;;;5004435;28;20112;-66
2022/07/09 12:40:18;;;;;;;2.55;1.33;;;26.10;48.80;;;;;;5011778;28;20080;-66